Time;durP1;ratioP1;P1;durP2;ratioP2;P2;SDS_P1;SDS_P2;PMS_P1;PMS_P2;Temp;Humidity;BMP_temperature;BMP_pressure;BME280_temperature;BME280_humidity;BME280_pressure;Samples;Min_cycle;Max_cycle;Signal;HPM_P1;HPM_P2
2023/04/07 00:01:43;;;;;;;78.93;35.30;;;;;;;;;;5082460;28;20048;-68
2023/04/07 00:04:12;;;;;;;89.50;36.58;;;;;;;;;;5078312;28;20123;-68
2023/04/07 00:06:42;;;;;;;100.55;37.38;;;;;;;;;;5087013;28;20044;-68
2023/04/07 00:09:10;;;;;;;84.07;36.53;;;;;;;;;;5082263;28;20412;-68
2023/04/07 00:11:37;;;;;;;68.47;34.47;;;;;;;;;;5061934;28;20091;-68
2023/04/07 00:14:04;;;;;;;68.18;34.65;;;;;;;;;;5082831;28;20124;-68
2023/04/07 00:16:32;;;;;;;86.57;35.53;;;;;;;;;;5080461;28;20048;-69
2023/04/07 00:18:59;;;;;;;74.05;35.20;;;;;;;;;;5081948;28;20451;-68
2023/04/07 00:21:27;;;;;;;76.22;35.30;;;;;;;;;;5075374;28;20161;-68
2023/04/07 00:23:55;;;;;;;102.40;37.55;;;;;;;;;;5082472;28;20047;-68
2023/04/07 00:26:24;;;;;;;73.20;35.22;;;;;;;;;;5060574;28;20052;-68
2023/04/07 00:28:51;;;;;;;110.18;38.75;;;;;;;;;;5084562;28;20062;-68
2023/04/07 00:31:18;;;;;;;101.25;38.67;;;;;;;;;;5057772;28;20048;-68
2023/04/07 00:33:47;;;;;;;90.15;35.65;;;;;;;;;;5080143;28;20372;-68
2023/04/07 00:36:14;;;;;;;111.80;38.53;;;;;;;;;;5080378;28;20052;-68
2023/04/07 00:38:43;;;;;;;83.15;36.83;;;;;;;;;;5062050;28;20052;-67
2023/04/07 00:41:10;;;;;;;96.70;37.22;;;;;;;;;;5087956;28;20045;-68
2023/04/07 00:43:37;;;;;;;93.90;38.88;;;;;;;;;;5090052;28;20079;-68
2023/04/07 00:46:05;;;;;;;116.25;39.50;;;;;;;;;;5070812;28;20048;-68
2023/04/07 00:48:32;;;;;;;103.03;37.58;;;;;;;;;;5084770;28;20533;-68
2023/04/07 00:50:59;;;;;;;99.05;37.67;;;;;;;;;;5090670;28;20044;-68
2023/04/07 00:53:26;;;;;;;109.38;39.38;;;;;;;;;;5088810;28;20410;-68
2023/04/07 00:55:55;;;;;;;85.35;37.88;;;;;;;;;;5089179;28;20511;-68
2023/04/07 00:58:22;;;;;;;89.15;37.85;;;;;;;;;;5082900;28;20048;-68
2023/04/07 01:00:50;;;;;;;78.63;37.17;;;;;;;;;;5089399;28;20051;-68
2023/04/07 01:03:19;;;;;;;101.50;39.20;;;;;;;;;;5079360;28;20406;-68
2023/04/07 01:05:51;;;;;;;83.38;38.50;;;;;;;;;;5083511;28;20056;-68
2023/04/07 01:08:21;;;;;;;104.82;39.83;;;;;;;;;;5087808;28;20151;-68
2023/04/07 01:10:50;;;;;;;85.57;37.80;;;;;;;;;;5087177;28;20040;-68
2023/04/07 01:13:24;;;;;;;102.82;39.05;;;;;;;;;;5086868;28;20467;-68
2023/04/07 01:15:55;;;;;;;96.53;38.15;;;;;;;;;;5088963;28;20807;-68
2023/04/07 01:18:24;;;;;;;80.63;36.60;;;;;;;;;;5083401;28;20053;-68
2023/04/07 01:20:52;;;;;;;81.75;37.15;;;;;;;;;;5085345;28;20384;-68
2023/04/07 01:23:24;;;;;;;148.20;42.25;;;;;;;;;;5081507;28;20099;-68
2023/04/07 01:25:55;;;;;;;72.05;34.35;;;;;;;;;;5088348;28;20055;-68
2023/04/07 01:28:34;;;;;;;82.65;36.53;;;;;;;;;;5084654;28;20048;-68
2023/04/07 01:31:04;;;;;;;100.28;39.63;;;;;;;;;;5087574;28;20047;-68
2023/04/07 01:33:33;;;;;;;79.97;37.33;;;;;;;;;;5090050;28;20066;-68
2023/04/07 01:36:01;;;;;;;123.13;40.92;;;;;;;;;;5090202;28;20411;-68
2023/04/07 01:38:29;;;;;;;115.13;40.60;;;;;;;;;;5084011;28;20055;-68
2023/04/07 01:40:57;;;;;;;76.35;36.35;;;;;;;;;;5090857;28;20048;-68
2023/04/07 01:43:26;;;;;;;104.15;39.10;;;;;;;;;;5085781;28;20140;-68
2023/04/07 01:45:54;;;;;;;122.63;41.25;;;;;;;;;;5087748;28;20117;-68
2023/04/07 01:48:23;;;;;;;79.63;37.35;;;;;;;;;;5066432;28;20048;-68
2023/04/07 01:50:51;;;;;;;97.68;39.80;;;;;;;;;;5085624;28;20509;-68
2023/04/07 01:53:19;;;;;;;132.40;41.35;;;;;;;;;;5083550;28;20392;-68
2023/04/07 01:55:46;;;;;;;106.20;39.80;;;;;;;;;;5087741;28;20050;-68
2023/04/07 01:58:14;;;;;;;98.20;39.45;;;;;;;;;;5083852;28;20048;-68
2023/04/07 02:00:42;;;;;;;98.07;38.53;;;;;;;;;;5086853;28;20055;-68
2023/04/07 02:03:11;;;;;;;132.88;41.00;;;;;;;;;;5069696;28;20741;-68
2023/04/07 02:05:40;;;;;;;82.30;37.53;;;;;;;;;;5084517;28;20040;-68
2023/04/07 02:08:09;;;;;;;140.85;42.08;;;;;;;;;;5087673;28;20813;-68
2023/04/07 02:10:38;;;;;;;102.10;39.22;;;;;;;;;;5084936;28;20125;-68
2023/04/07 02:13:07;;;;;;;139.98;40.97;;;;;;;;;;5070027;28;20056;-68
2023/04/07 02:15:35;;;;;;;73.93;35.05;;;;;;;;;;5083931;28;20112;-68
2023/04/07 02:18:04;;;;;;;209.13;46.67;;;;;;;;;;5087185;28;20515;-68
2023/04/07 02:20:31;;;;;;;138.57;41.55;;;;;;;;;;5086262;28;20052;-69
2023/04/07 02:23:00;;;;;;;80.07;36.28;;;;;;;;;;5083386;28;20040;-68
2023/04/07 02:25:29;;;;;;;112.75;40.03;;;;;;;;;;5082303;28;20049;-69
2023/04/07 02:27:57;;;;;;;125.28;41.33;;;;;;;;;;5084926;28;20131;-68
2023/04/07 02:30:24;;;;;;;134.02;41.00;;;;;;;;;;5087442;28;20051;-68
2023/04/07 02:32:52;;;;;;;92.55;37.75;;;;;;;;;;5083604;28;20055;-68
2023/04/07 02:35:19;;;;;;;97.75;39.25;;;;;;;;;;5069260;28;20098;-68
2023/04/07 02:37:47;;;;;;;123.80;40.70;;;;;;;;;;5083388;28;20045;-69
2023/04/07 02:40:16;;;;;;;85.82;37.67;;;;;;;;;;5088485;28;20396;-69
2023/04/07 02:42:43;;;;;;;78.55;35.55;;;;;;;;;;5083395;28;20059;-68
2023/04/07 02:45:11;;;;;;;93.53;37.10;;;;;;;;;;5084848;28;20063;-69
2023/04/07 02:47:38;;;;;;;89.32;36.25;;;;;;;;;;5080528;28;20490;-68
2023/04/07 02:50:06;;;;;;;98.53;37.25;;;;;;;;;;5066821;28;20682;-68
2023/04/07 02:52:33;;;;;;;85.32;35.28;;;;;;;;;;5089010;28;20063;-69
2023/04/07 02:55:01;;;;;;;91.85;35.72;;;;;;;;;;5081573;28;20058;-69
2023/04/07 02:57:30;;;;;;;85.07;33.72;;;;;;;;;;5083877;28;20044;-68
2023/04/07 02:59:57;;;;;;;148.57;38.58;;;;;;;;;;5085894;28;20044;-68
2023/04/07 03:02:25;;;;;;;75.43;33.58;;;;;;;;;;5083940;28;20052;-68
2023/04/07 03:04:52;;;;;;;87.45;34.53;;;;;;;;;;5081493;28;20055;-68
2023/04/07 03:07:20;;;;;;;60.85;30.92;;;;;;;;;;5083623;28;20059;-68
2023/04/07 03:09:47;;;;;;;78.32;32.00;;;;;;;;;;5087375;28;20051;-69
2023/04/07 03:12:14;;;;;;;85.45;34.55;;;;;;;;;;5065821;28;20058;-68
2023/04/07 03:14:43;;;;;;;103.88;35.85;;;;;;;;;;5086124;28;20058;-68
2023/04/07 03:17:10;;;;;;;76.63;32.05;;;;;;;;;;5066527;28;20059;-68
2023/04/07 03:19:37;;;;;;;94.85;35.35;;;;;;;;;;5088386;28;20404;-68
2023/04/07 03:22:05;;;;;;;66.72;31.73;;;;;;;;;;5087947;28;20052;-68
2023/04/07 03:24:32;;;;;;;77.05;33.03;;;;;;;;;;5088017;28;20398;-68
2023/04/07 03:27:00;;;;;;;104.35;35.10;;;;;;;;;;5080180;28;20044;-68
2023/04/07 03:29:28;;;;;;;86.82;33.17;;;;;;;;;;5083044;28;20052;-68
2023/04/07 03:31:56;;;;;;;69.93;32.33;;;;;;;;;;5080817;28;20373;-69
2023/04/07 03:34:24;;;;;;;73.75;32.00;;;;;;;;;;5083433;28;20400;-68
2023/04/07 03:36:51;;;;;;;71.47;31.50;;;;;;;;;;5084117;28;20148;-68
2023/04/07 03:39:18;;;;;;;63.15;29.45;;;;;;;;;;5085134;28;20056;-68
2023/04/07 03:41:46;;;;;;;97.60;33.03;;;;;;;;;;5065147;28;20056;-68
2023/04/07 03:44:13;;;;;;;96.63;33.40;;;;;;;;;;5083300;28;20059;-68
2023/04/07 03:46:40;;;;;;;73.93;31.75;;;;;;;;;;5084437;28;20049;-68
2023/04/07 03:49:09;;;;;;;73.90;31.23;;;;;;;;;;5083633;28;20043;-68
2023/04/07 03:51:36;;;;;;;102.78;33.25;;;;;;;;;;5086518;28;20063;-68
2023/04/07 03:54:03;;;;;;;81.53;33.88;;;;;;;;;;5083276;28;20049;-68
2023/04/07 03:56:31;;;;;;;80.45;34.00;;;;;;;;;;5079012;28;20062;-68
2023/04/07 03:58:58;;;;;;;72.65;31.88;;;;;;;;;;5083367;28;20545;-68
2023/04/07 04:01:25;;;;;;;126.63;36.55;;;;;;;;;;5088345;28;20048;-68
2023/04/07 04:03:52;;;;;;;87.95;34.45;;;;;;;;;;5082915;28;20480;-68
2023/04/07 04:06:21;;;;;;;83.90;34.60;;;;;;;;;;5087898;28;20491;-69
2023/04/07 04:08:48;;;;;;;100.30;36.33;;;;;;;;;;5082449;28;20070;-68
2023/04/07 04:11:15;;;;;;;87.40;33.42;;;;;;;;;;5088320;28;20051;-68
2023/04/07 04:13:43;;;;;;;78.45;33.72;;;;;;;;;;5083722;28;20495;-68
2023/04/07 04:16:10;;;;;;;92.70;33.50;;;;;;;;;;5086199;28;20044;-68
2023/04/07 04:18:37;;;;;;;77.88;32.88;;;;;;;;;;5092037;28;20048;-68
2023/04/07 04:21:05;;;;;;;101.90;34.58;;;;;;;;;;5076177;28;20054;-68
2023/04/07 04:23:33;;;;;;;149.32;38.50;;;;;;;;;;5092411;28;20063;-68
2023/04/07 04:26:02;;;;;;;121.47;36.35;;;;;;;;;;5092326;28;20047;-69
2023/04/07 04:28:30;;;;;;;90.18;33.58;;;;;;;;;;5089496;28;20048;-68
2023/04/07 04:30:57;;;;;;;130.60;36.30;;;;;;;;;;5090599;28;20052;-68
2023/04/07 04:33:24;;;;;;;79.95;32.70;;;;;;;;;;5092584;28;20040;-68
2023/04/07 04:35:51;;;;;;;100.32;35.83;;;;;;;;;;5091511;28;20047;-68
2023/04/07 04:38:19;;;;;;;130.20;38.17;;;;;;;;;;5086951;28;20059;-68
2023/04/07 04:40:48;;;;;;;103.15;35.83;;;;;;;;;;5090330;28;20044;-68
2023/04/07 04:43:15;;;;;;;94.93;35.33;;;;;;;;;;5089114;28;20134;-68
2023/04/07 04:45:42;;;;;;;105.97;37.10;;;;;;;;;;5091996;28;20036;-68
2023/04/07 04:48:10;;;;;;;104.78;36.47;;;;;;;;;;5092409;28;20075;-68
2023/04/07 04:50:38;;;;;;;146.90;40.95;;;;;;;;;;5092168;28;20076;-69
2023/04/07 04:53:05;;;;;;;84.90;35.25;;;;;;;;;;5094525;28;20532;-68
2023/04/07 04:55:32;;;;;;;104.35;37.72;;;;;;;;;;5091490;28;20052;-68
2023/04/07 04:58:01;;;;;;;101.03;36.95;;;;;;;;;;5087791;28;20059;-68
2023/04/07 05:00:28;;;;;;;124.03;38.53;;;;;;;;;;5090638;28;20506;-68
2023/04/07 05:02:55;;;;;;;96.47;37.40;;;;;;;;;;5093329;28;20050;-68
2023/04/07 05:05:23;;;;;;;121.53;38.90;;;;;;;;;;5090520;28;20043;-68
2023/04/07 05:07:50;;;;;;;105.50;37.67;;;;;;;;;;5072679;28;20086;-68
2023/04/07 05:10:17;;;;;;;83.25;35.67;;;;;;;;;;5091525;28;20391;-68
2023/04/07 05:12:44;;;;;;;93.47;37.08;;;;;;;;;;5089952;28;20047;-68
2023/04/07 05:15:14;;;;;;;110.05;37.88;;;;;;;;;;5089676;28;20063;-68
2023/04/07 05:17:41;;;;;;;124.60;39.08;;;;;;;;;;5085218;28;20512;-68
2023/04/07 05:20:10;;;;;;;129.00;39.15;;;;;;;;;;5078921;28;20105;-68
2023/04/07 05:22:37;;;;;;;102.78;36.83;;;;;;;;;;5086161;28;20513;-68
2023/04/07 05:25:05;;;;;;;100.15;36.60;;;;;;;;;;5073432;28;20088;-68
2023/04/07 05:27:32;;;;;;;114.18;37.25;;;;;;;;;;5091693;28;20067;-69
2023/04/07 05:30:00;;;;;;;94.35;35.63;;;;;;;;;;5084290;28;20391;-68
2023/04/07 05:32:29;;;;;;;95.68;37.20;;;;;;;;;;5085773;28;20056;-68
2023/04/07 05:34:56;;;;;;;89.20;38.10;;;;;;;;;;5068811;28;20058;-68
2023/04/07 05:37:23;;;;;;;129.32;38.78;;;;;;;;;;5091048;28;20048;-69
2023/04/07 05:39:51;;;;;;;100.97;37.67;;;;;;;;;;5083677;28;20482;-69
2023/04/07 05:42:18;;;;;;;86.18;35.60;;;;;;;;;;5066774;28;20062;-68
2023/04/07 05:44:45;;;;;;;90.78;36.83;;;;;;;;;;5086029;28;20044;-69
2023/04/07 05:47:12;;;;;;;170.95;42.10;;;;;;;;;;5086211;28;20044;-68
2023/04/07 05:49:44;;;;;;;99.50;37.40;;;;;;;;;;5089009;28;20044;-68
2023/04/07 05:52:12;;;;;;;90.88;35.88;;;;;;;;;;5080550;28;20135;-70
2023/04/07 05:54:40;;;;;;;95.57;37.08;;;;;;;;;;5083397;28;20044;-69
2023/04/07 05:57:07;;;;;;;75.72;34.38;;;;;;;;;;5086681;28;20039;-70
2023/04/07 05:59:35;;;;;;;98.80;36.55;;;;;;;;;;5064433;28;20044;-70
2023/04/07 06:02:03;;;;;;;83.78;34.42;;;;;;;;;;5088037;28;20131;-70
2023/04/07 06:04:30;;;;;;;93.38;34.00;;;;;;;;;;5087291;28;20722;-69
2023/04/07 06:06:59;;;;;;;87.80;32.80;;;;;;;;;;5086043;28;20044;-69
2023/04/07 06:09:26;;;;;;;62.70;29.05;;;;;;;;;;5079703;28;20110;-70
2023/04/07 06:11:53;;;;;;;67.85;28.40;;;;;;;;;;5085060;28;20059;-70
2023/04/07 06:14:21;;;;;;;76.75;29.92;;;;;;;;;;5085046;28;20039;-69
2023/04/07 06:16:48;;;;;;;75.07;28.83;;;;;;;;;;5065577;28;20062;-69
2023/04/07 06:19:15;;;;;;;56.42;26.25;;;;;;;;;;5086640;28;20044;-68
2023/04/07 06:21:43;;;;;;;62.90;27.90;;;;;;;;;;5085441;28;20050;-69
2023/04/07 06:24:11;;;;;;;57.33;27.42;;;;;;;;;;5086054;28;20048;-68
2023/04/07 06:26:40;;;;;;;60.38;26.92;;;;;;;;;;5077942;28;20048;-69
2023/04/07 06:29:07;;;;;;;51.67;26.75;;;;;;;;;;5084169;28;20059;-69
2023/04/07 06:31:34;;;;;;;60.83;27.05;;;;;;;;;;5086429;28;20104;-69
2023/04/07 06:34:02;;;;;;;50.05;25.60;;;;;;;;;;5081494;28;20105;-69
2023/04/07 06:36:29;;;;;;;51.50;25.85;;;;;;;;;;5078328;28;20058;-69
2023/04/07 06:38:57;;;;;;;46.78;24.08;;;;;;;;;;5086468;28;20047;-70
2023/04/07 06:41:25;;;;;;;53.33;26.15;;;;;;;;;;5086036;28;20062;-69
2023/04/07 06:43:53;;;;;;;42.00;23.38;;;;;;;;;;5080470;28;20517;-69
2023/04/07 06:46:20;;;;;;;44.25;23.05;;;;;;;;;;5080105;28;20059;-69
2023/04/07 06:48:47;;;;;;;47.88;25.20;;;;;;;;;;5080617;28;20052;-69
2023/04/07 06:51:15;;;;;;;42.08;22.45;;;;;;;;;;5082900;28;20052;-69
2023/04/07 06:53:43;;;;;;;54.70;24.50;;;;;;;;;;5086927;28;20434;-68
2023/04/07 06:56:10;;;;;;;37.75;22.50;;;;;;;;;;5079339;28;20060;-69
2023/04/07 06:58:39;;;;;;;41.33;22.27;;;;;;;;;;5086570;28;20044;-69
2023/04/07 07:01:06;;;;;;;32.17;20.08;;;;;;;;;;5081383;28;20392;-68
2023/04/07 07:03:34;;;;;;;34.63;20.83;;;;;;;;;;5081754;28;20044;-70
2023/04/07 07:06:02;;;;;;;32.22;19.35;;;;;;;;;;5076950;28;20055;-69
2023/04/07 07:08:30;;;;;;;28.30;18.27;;;;;;;;;;5084730;28;20052;-70
2023/04/07 07:10:57;;;;;;;27.20;18.55;;;;;;;;;;5080130;28;20109;-70
2023/04/07 07:13:26;;;;;;;30.55;18.65;;;;;;;;;;5075694;28;20051;-70
2023/04/07 07:15:54;;;;;;;26.92;18.25;;;;;;;;;;5083413;28;20478;-70
2023/04/07 07:18:22;;;;;;;29.40;17.95;;;;;;;;;;5081547;28;20048;-70
2023/04/07 07:20:49;;;;;;;24.02;16.80;;;;;;;;;;5086506;28;20102;-70
2023/04/07 07:23:16;;;;;;;29.95;17.88;;;;;;;;;;5080710;28;20125;-69
2023/04/07 07:25:44;;;;;;;24.90;17.35;;;;;;;;;;5084076;28;20059;-70
2023/04/07 07:28:11;;;;;;;28.50;18.15;;;;;;;;;;5076390;28;20051;-70
2023/04/07 07:30:40;;;;;;;25.15;17.30;;;;;;;;;;5084267;28;20532;-70
2023/04/07 07:33:08;;;;;;;27.70;17.95;;;;;;;;;;5077428;28;20068;-70
2023/04/07 07:35:36;;;;;;;28.67;19.30;;;;;;;;;;5082194;28;20135;-70
2023/04/07 07:38:04;;;;;;;22.88;15.95;;;;;;;;;;5082248;28;20044;-70
2023/04/07 07:40:31;;;;;;;25.17;16.55;;;;;;;;;;5084610;28;20060;-70
2023/04/07 07:42:58;;;;;;;24.95;15.75;;;;;;;;;;5078783;28;20507;-70
2023/04/07 07:45:26;;;;;;;19.63;14.40;;;;;;;;;;5085811;28;20487;-70
2023/04/07 07:47:53;;;;;;;26.52;16.02;;;;;;;;;;5086030;28;20044;-70
2023/04/07 07:50:22;;;;;;;20.27;14.75;;;;;;;;;;5063162;28;20418;-70
2023/04/07 07:52:49;;;;;;;20.38;14.68;;;;;;;;;;5084757;28;20071;-70
2023/04/07 07:55:16;;;;;;;20.02;15.57;;;;;;;;;;5086465;28;20105;-70
2023/04/07 07:57:43;;;;;;;19.63;14.75;;;;;;;;;;5084718;28;20047;-70
2023/04/07 08:00:11;;;;;;;26.85;17.48;;;;;;;;;;5085667;28;20036;-70
2023/04/07 08:02:39;;;;;;;21.15;15.50;;;;;;;;;;5083514;28;20742;-70
2023/04/07 08:05:06;;;;;;;19.98;14.93;;;;;;;;;;5087008;28;20558;-70
2023/04/07 08:07:35;;;;;;;20.55;15.20;;;;;;;;;;5085283;28;20047;-69
2023/04/07 08:10:02;;;;;;;23.13;15.88;;;;;;;;;;5079601;28;20552;-70
2023/04/07 08:12:30;;;;;;;22.55;15.27;;;;;;;;;;5086225;28;20052;-69
2023/04/07 08:14:57;;;;;;;21.55;15.15;;;;;;;;;;5080495;28;20044;-69
2023/04/07 08:17:24;;;;;;;24.65;15.20;;;;;;;;;;5081776;28;20043;-69
2023/04/07 08:19:51;;;;;;;21.25;15.32;;;;;;;;;;5083919;28;20043;-68
2023/04/07 08:22:19;;;;;;;23.42;16.65;;;;;;;;;;5074531;28;20044;-72
2023/04/07 08:24:48;;;;;;;26.92;18.42;;;;;;;;;;5080618;28;20047;-73
2023/04/07 08:27:15;;;;;;;26.45;17.55;;;;;;;;;;5077818;28;20044;-71
2023/04/07 08:29:43;;;;;;;26.55;17.88;;;;;;;;;;5085638;28;20063;-70
2023/04/07 08:32:10;;;;;;;26.23;17.70;;;;;;;;;;5066591;28;20087;-71
2023/04/07 08:34:37;;;;;;;25.75;16.70;;;;;;;;;;5077118;28;20067;-71
2023/04/07 08:37:05;;;;;;;28.15;17.73;;;;;;;;;;5082942;28;20044;-70
2023/04/07 08:39:32;;;;;;;29.95;17.50;;;;;;;;;;5074250;28;20052;-71
2023/04/07 08:42:01;;;;;;;27.85;18.45;;;;;;;;;;5083176;28;20052;-70
2023/04/07 08:44:30;;;;;;;30.17;19.13;;;;;;;;;;5079589;28;20040;-72
2023/04/07 08:46:58;;;;;;;27.98;17.95;;;;;;;;;;5085071;28;20478;-71
2023/04/07 08:49:26;;;;;;;27.70;19.23;;;;;;;;;;5083770;28;20417;-71
2023/04/07 08:51:54;;;;;;;26.33;17.45;;;;;;;;;;5085214;28;20052;-72
2023/04/07 08:54:22;;;;;;;29.20;18.83;;;;;;;;;;5063285;28;20083;-72
2023/04/07 08:56:50;;;;;;;31.60;19.52;;;;;;;;;;5085478;28;20048;-72
2023/04/07 08:59:24;;;;;;;26.20;18.25;;;;;;;;;;5065389;28;20052;-71
2023/04/07 09:01:52;;;;;;;24.20;17.30;;;;;;;;;;5068739;28;20109;-71
2023/04/07 09:04:19;;;;;;;24.23;17.10;;;;;;;;;;5061489;28;20136;-72
2023/04/07 09:06:47;;;;;;;24.23;17.63;;;;;;;;;;5071416;28;20052;-72
2023/04/07 09:09:14;;;;;;;25.02;17.10;;;;;;;;;;5087397;28;20051;-72
2023/04/07 09:11:41;;;;;;;27.13;18.35;;;;;;;;;;5068640;28;20145;-72
2023/04/07 09:14:09;;;;;;;25.58;16.77;;;;;;;;;;5088334;28;20520;-72
2023/04/07 09:16:38;;;;;;;19.45;15.07;;;;;;;;;;5085839;28;20054;-72
2023/04/07 09:19:06;;;;;;;23.08;16.48;;;;;;;;;;5068834;28;20048;-72
2023/04/07 09:21:48;;;;;;;21.30;15.13;;;;;;;;;;5088571;28;20052;-72
2023/04/07 09:24:22;;;;;;;21.70;15.98;;;;;;;;;;5088595;28;20040;-72
2023/04/07 09:26:49;;;;;;;24.33;16.85;;;;;;;;;;5085907;28;20399;-72
2023/04/07 09:29:19;;;;;;;23.50;15.52;;;;;;;;;;5086371;28;20048;-72
2023/04/07 09:31:49;;;;;;;19.02;14.95;;;;;;;;;;5087576;28;20049;-72
2023/04/07 09:34:26;;;;;;;21.73;15.60;;;;;;;;;;5088507;28;20506;-71
2023/04/07 09:36:57;;;;;;;17.85;13.70;;;;;;;;;;5088893;28;20163;-72
2023/04/07 09:39:24;;;;;;;20.48;14.48;;;;;;;;;;5067922;28;20491;-72
2023/04/07 09:41:52;;;;;;;19.75;13.70;;;;;;;;;;5069579;28;20686;-72
2023/04/07 09:44:19;;;;;;;15.90;11.77;;;;;;;;;;5070461;28;20054;-73
2023/04/07 09:46:51;;;;;;;18.38;12.45;;;;;;;;;;5070996;28;20095;-72
2023/04/07 09:49:20;;;;;;;16.48;12.05;;;;;;;;;;5070054;28;20064;-72
2023/04/07 09:51:54;;;;;;;15.95;11.68;;;;;;;;;;5068537;28;20518;-73
2023/04/07 09:54:36;;;;;;;13.27;10.55;;;;;;;;;;5066191;28;20497;-73
2023/04/07 09:57:04;;;;;;;14.35;10.90;;;;;;;;;;5080480;28;20491;-72
2023/04/07 09:59:32;;;;;;;12.75;10.27;;;;;;;;;;5066680;28;20052;-73
2023/04/07 10:02:01;;;;;;;15.02;10.77;;;;;;;;;;5086961;28;20040;-72
2023/04/07 10:04:28;;;;;;;13.80;10.23;;;;;;;;;;5085741;28;20480;-72
2023/04/07 10:06:57;;;;;;;14.38;10.07;;;;;;;;;;5085795;28;20048;-73
2023/04/07 10:09:25;;;;;;;13.10;9.65;;;;;;;;;;5066037;28;20061;-73
2023/04/07 10:11:52;;;;;;;12.50;9.18;;;;;;;;;;5066078;28;20079;-72
2023/04/07 10:14:20;;;;;;;10.35;8.35;;;;;;;;;;5087586;28;20055;-73
2023/04/07 10:16:48;;;;;;;13.18;8.65;;;;;;;;;;5068284;28;20535;-72
2023/04/07 10:19:17;;;;;;;11.52;8.73;;;;;;;;;;5088346;28;20578;-72
2023/04/07 10:21:45;;;;;;;11.50;8.82;;;;;;;;;;5083400;28;20052;-73
2023/04/07 10:24:21;;;;;;;12.40;9.05;;;;;;;;;;5061039;28;20048;-72
2023/04/07 10:26:52;;;;;;;10.90;8.65;;;;;;;;;;5083300;28;20755;-72
2023/04/07 10:29:20;;;;;;;12.10;9.10;;;;;;;;;;5085207;28;20051;-73
2023/04/07 10:31:47;;;;;;;10.52;8.35;;;;;;;;;;5068782;28;20048;-73
2023/04/07 10:34:15;;;;;;;12.25;8.93;;;;;;;;;;5070421;28;20071;-73
2023/04/07 10:36:57;;;;;;;11.85;9.25;;;;;;;;;;5067547;28;20044;-73
2023/04/07 10:39:25;;;;;;;12.88;8.43;;;;;;;;;;5065191;28;20407;-72
2023/04/07 10:41:53;;;;;;;9.65;7.93;;;;;;;;;;5071055;28;20046;-72
2023/04/07 10:44:41;;;;;;;9.50;8.15;;;;;;;;;;5083654;28;20127;-72
2023/04/07 10:47:09;;;;;;;9.52;7.35;;;;;;;;;;5084752;28;20268;-72
2023/04/07 10:49:36;;;;;;;9.32;7.30;;;;;;;;;;5083909;28;20056;-72
2023/04/07 10:52:23;;;;;;;10.48;7.80;;;;;;;;;;5067150;28;20121;-73
2023/04/07 10:55:20;;;;;;;8.88;7.18;;;;;;;;;;5065597;28;20070;-72
2023/04/07 10:58:02;;;;;;;8.95;7.35;;;;;;;;;;5084851;28;20073;-72
2023/04/07 11:00:29;;;;;;;8.23;6.55;;;;;;;;;;5062411;28;20139;-72
2023/04/07 11:02:56;;;;;;;9.02;7.00;;;;;;;;;;5065933;28;20044;-72
2023/04/07 11:05:24;;;;;;;14.10;9.23;;;;;;;;;;5066914;28;20044;-72
2023/04/07 11:07:56;;;;;;;9.50;6.97;;;;;;;;;;5062664;28;20056;-72
2023/04/07 11:10:25;;;;;;;7.80;6.15;;;;;;;;;;5070440;28;20487;-72
2023/04/07 11:12:59;;;;;;;7.88;6.00;;;;;;;;;;5065518;28;20048;-72
2023/04/07 11:15:27;;;;;;;9.13;6.43;;;;;;;;;;5062998;28;20470;-72
2023/04/07 11:18:11;;;;;;;11.63;6.30;;;;;;;;;;5065718;28;20047;-72
2023/04/07 11:20:42;;;;;;;6.85;5.93;;;;;;;;;;5067252;28;20051;-72
2023/04/07 11:23:09;;;;;;;7.20;5.72;;;;;;;;;;5059406;28;20048;-72
2023/04/07 11:25:38;;;;;;;7.50;5.53;;;;;;;;;;5062204;28;20101;-72
2023/04/07 11:28:06;;;;;;;6.20;5.15;;;;;;;;;;5063097;28;20059;-72
2023/04/07 11:30:35;;;;;;;7.35;5.57;;;;;;;;;;5066322;28;20064;-72
2023/04/07 11:33:02;;;;;;;8.45;6.00;;;;;;;;;;5083277;28;20060;-72
2023/04/07 11:35:29;;;;;;;6.70;5.70;;;;;;;;;;5083722;28;20056;-72
2023/04/07 11:38:00;;;;;;;6.07;5.03;;;;;;;;;;5060177;28;20487;-72
2023/04/07 11:40:35;;;;;;;6.05;4.57;;;;;;;;;;5063668;28;20117;-72
2023/04/07 11:43:04;;;;;;;5.50;4.55;;;;;;;;;;5065783;28;20058;-72
2023/04/07 11:45:31;;;;;;;5.30;4.10;;;;;;;;;;5066214;28;20541;-72
2023/04/07 11:47:59;;;;;;;5.38;4.07;;;;;;;;;;5066750;28;20047;-72
2023/04/07 11:50:39;;;;;;;6.45;4.13;;;;;;;;;;5065907;28;20063;-73
2023/04/07 11:53:07;;;;;;;6.53;4.43;;;;;;;;;;5063177;28;20059;-72
2023/04/07 11:55:34;;;;;;;4.38;3.80;;;;;;;;;;5062651;28;20040;-72
2023/04/07 11:58:09;;;;;;;5.97;4.30;;;;;;;;;;5067687;28;20055;-72
2023/04/07 12:00:37;;;;;;;5.50;4.38;;;;;;;;;;5068517;28;20411;-72
2023/04/07 12:03:12;;;;;;;6.82;5.40;;;;;;;;;;5062469;28;20052;-72
2023/04/07 12:05:44;;;;;;;15.40;9.07;;;;;;;;;;5077883;28;20060;-72
2023/04/07 12:08:11;;;;;;;10.93;7.85;;;;;;;;;;5066845;28;20059;-72
2023/04/07 12:10:40;;;;;;;5.22;4.05;;;;;;;;;;5067618;28;20048;-72
2023/04/07 12:13:09;;;;;;;5.65;4.22;;;;;;;;;;5064603;28;20088;-72
2023/04/07 12:15:36;;;;;;;5.93;4.25;;;;;;;;;;5068098;28;20055;-72
2023/04/07 12:18:04;;;;;;;5.47;4.22;;;;;;;;;;5064777;28;20495;-72
2023/04/07 12:20:32;;;;;;;5.88;4.80;;;;;;;;;;5060765;28;20059;-72
2023/04/07 12:22:59;;;;;;;5.93;5.10;;;;;;;;;;5064572;28;20048;-72
2023/04/07 12:25:27;;;;;;;7.13;4.88;;;;;;;;;;5068368;28;20118;-72
2023/04/07 12:27:54;;;;;;;5.80;4.63;;;;;;;;;;5064707;28;20099;-72
2023/04/07 12:30:23;;;;;;;6.72;5.30;;;;;;;;;;5062130;28;20048;-72
2023/04/07 12:32:50;;;;;;;7.03;5.18;;;;;;;;;;5086031;28;20131;-73
2023/04/07 12:35:18;;;;;;;6.03;4.80;;;;;;;;;;5064811;28;20075;-72
2023/04/07 12:37:46;;;;;;;6.68;4.95;;;;;;;;;;5066638;28;20411;-72
2023/04/07 12:40:14;;;;;;;8.23;5.35;;;;;;;;;;5087342;28;20071;-72
2023/04/07 12:42:42;;;;;;;6.03;4.97;;;;;;;;;;5070625;28;20139;-72
2023/04/07 12:45:09;;;;;;;6.70;5.32;;;;;;;;;;5085870;28;20628;-72
2023/04/07 12:47:38;;;;;;;6.20;5.13;;;;;;;;;;5073776;28;20048;-72
2023/04/07 12:50:06;;;;;;;5.45;4.72;;;;;;;;;;5067936;28;20050;-73
2023/04/07 12:52:33;;;;;;;6.80;5.20;;;;;;;;;;5067274;28;20119;-72
2023/04/07 12:55:00;;;;;;;7.55;5.22;;;;;;;;;;5069393;28;20052;-72
2023/04/07 12:57:28;;;;;;;6.20;4.88;;;;;;;;;;5066118;28;20058;-72
2023/04/07 12:59:55;;;;;;;7.85;5.55;;;;;;;;;;5065978;28;20043;-72
2023/04/07 13:02:23;;;;;;;6.50;5.80;;;;;;;;;;5066085;28;20083;-72
2023/04/07 13:04:52;;;;;;;6.10;5.00;;;;;;;;;;5084576;28;20047;-72
2023/04/07 13:07:21;;;;;;;8.65;5.53;;;;;;;;;;5066555;28;20400;-72
2023/04/07 13:09:48;;;;;;;7.82;5.65;;;;;;;;;;5071685;28;20088;-72
2023/04/07 13:12:15;;;;;;;6.10;4.82;;;;;;;;;;5068828;28;20052;-72
2023/04/07 13:14:43;;;;;;;7.63;5.85;;;;;;;;;;5064760;28;20054;-72
2023/04/07 13:17:10;;;;;;;8.32;4.82;;;;;;;;;;5086301;28;20044;-72
2023/04/07 13:19:38;;;;;;;6.53;4.85;;;;;;;;;;5067518;28;20130;-72
2023/04/07 13:22:07;;;;;;;6.18;4.85;;;;;;;;;;5067326;28;20140;-72
2023/04/07 13:24:35;;;;;;;5.40;4.47;;;;;;;;;;5068396;28;20048;-72
2023/04/07 13:27:02;;;;;;;5.75;4.70;;;;;;;;;;5063958;28;20056;-72
2023/04/07 13:29:30;;;;;;;6.03;4.90;;;;;;;;;;5083762;28;20056;-72
2023/04/07 13:32:05;;;;;;;6.22;4.65;;;;;;;;;;5067435;28;20051;-72
2023/04/07 13:34:33;;;;;;;7.20;4.72;;;;;;;;;;5066654;28;20052;-72
2023/04/07 13:37:01;;;;;;;5.20;4.50;;;;;;;;;;5065429;28;20530;-72
2023/04/07 13:39:30;;;;;;;5.60;4.50;;;;;;;;;;5071770;28;20489;-72
2023/04/07 13:41:58;;;;;;;5.50;4.60;;;;;;;;;;5086809;28;20051;-73
2023/04/07 13:44:26;;;;;;;5.45;4.28;;;;;;;;;;5071751;28;20415;-73
2023/04/07 13:46:53;;;;;;;5.82;4.53;;;;;;;;;;5070350;28;20047;-72
2023/04/07 13:49:21;;;;;;;6.22;4.50;;;;;;;;;;5069413;28;20052;-72
2023/04/07 13:51:48;;;;;;;5.53;4.80;;;;;;;;;;5070366;28;20052;-73
2023/04/07 13:54:17;;;;;;;6.05;4.60;;;;;;;;;;5086694;28;20891;-72
2023/04/07 13:56:47;;;;;;;5.57;4.60;;;;;;;;;;5069118;28;20113;-72
2023/04/07 13:59:15;;;;;;;6.90;5.45;;;;;;;;;;5070266;28;20422;-72
2023/04/07 14:01:42;;;;;;;6.05;4.78;;;;;;;;;;5071234;28;20048;-73
2023/04/07 14:04:09;;;;;;;5.38;4.57;;;;;;;;;;5083326;28;20635;-73
2023/04/07 14:06:37;;;;;;;5.43;4.05;;;;;;;;;;5064525;28;20059;-72
2023/04/07 14:09:05;;;;;;;5.63;4.75;;;;;;;;;;5069063;28;20851;-72
2023/04/07 14:11:34;;;;;;;5.45;4.70;;;;;;;;;;5065104;28;20138;-73
2023/04/07 14:14:03;;;;;;;5.30;4.68;;;;;;;;;;5084130;28;20051;-73
2023/04/07 14:16:31;;;;;;;5.95;4.53;;;;;;;;;;5067467;28;20048;-73
2023/04/07 14:18:58;;;;;;;5.40;4.57;;;;;;;;;;5085391;28;20049;-73
2023/04/07 14:21:26;;;;;;;5.15;4.05;;;;;;;;;;5069210;28;20052;-73
2023/04/07 14:23:53;;;;;;;6.35;4.50;;;;;;;;;;5063293;28;20051;-73
2023/04/07 14:26:22;;;;;;;5.80;4.32;;;;;;;;;;5064875;28;20131;-73
2023/04/07 14:28:49;;;;;;;5.72;4.65;;;;;;;;;;5066804;28;20112;-74